Preston, MN

4:54 PM CDT on September 02, 2015 (GMT -0500)
Preston | | Change Station
CLOSE
Current Station
Personal Weather Station
Location: Preston, MN
Elevation: 990 ft
Nearby Weather Stations

Elev 990 ft 43.68 °N, 92.08 °W | Updated 15 seconds ago

Partly Cloudy
Partly Cloudy
82.2 °F
Feels Like 88 °F
N
5.6
Wind Variable Wind from SE
Gusts 9.0 mph

Today
High -- | Low -- °F
--% Chance of Precip.
Yesterday
High -- | Low -- °F
Precip. -- in
6:32 AM 7:42 PM
Waning Gibbous, 77% visible
Pressure 29.92 in
Visibility 10.0 miles
Clouds Scattered Clouds 3200 ft
Mostly Cloudy 4800 ft
Overcast 5500 ft
Heat Index 88 °F
Dew Point 72 °F
Humidity 73%
Rainfall 0.02 in
Snow Depth Not available.
UV 1 out of 12
Pollen 10.40 out of 12
Air Quality Not available.
Flu Activity Not available.
METAR KFKA 022132Z AUTO 18008KT 10SM SCT032 BKN048 OVC055 27/21 A2992 RMK AO2 T02690211
Pressure 29.92 in
Visibility 10.0 miles
Clouds Scattered Clouds 3200 ft
Mostly Cloudy 4800 ft
Overcast 5500 ft
Heat Index 88 °F
Dew Point 72 °F
Humidity 73%
Rainfall 0.02 in
Snow Depth Not available.
UV 1 out of 12
Pollen 10.40 out of 12
Air Quality Not available.
Flu Activity Not available.
METAR KFKA 022132Z AUTO 18008KT 10SM SCT032 BKN048 OVC055 27/21 A2992 RMK AO2 T02690211

10-Day Weather Forecast

×

Almanac

Astronomy

Sep. 02, 2015 Rise Set
Actual Time
Civil Twilight
Nautical Twilight
Astronomical Twilight
Moon
Length of Visible Light
Length of Day
Tomorrow will be .
, % of the Moon is Illuminated

Today's Extremes

State Highs State Lows

Community

WunderPhotos

Upload Photos

1,851,818 photos uploaded!

WunderBlogs® & News

Nearby

Air Quality

  Air Quality AQ Index Pollutant
Not available.

Snow Depth

Station Depth Elevation

Earthquake Activity

City Distance Mag. Time & Date
Minimum magnitude displayed is 2.5.

Coastal Water Temperatures

Place Temperature

Stations

Nearby Weather Stations

Station Location Temp. Windchill Dew Point Humidity Wind Precip. Elev Updated Type